Time;durP1;ratioP1;P1;durP2;ratioP2;P2;SDS_P1;SDS_P2;PMS_P1;PMS_P2;Temp;Humidity;BMP_temperature;BMP_pressure;BME280_temperature;BME280_humidity;BME280_pressure;Samples;Min_cycle;Max_cycle;Signal;HPM_P1;HPM_P2
2023/03/17 00:03:54;;;;;;;20.25;9.75;;;;;;;;;;10487257;28;20505;-75
2023/03/17 00:09:16;;;;;;;21.30;9.98;;;;;;;;;;10493719;28;20040;-75
2023/03/17 00:14:37;;;;;;;10.05;7.47;;;;;;;;;;10460793;28;20047;-75
2023/03/17 00:19:58;;;;;;;22.90;9.82;;;;;;;;;;10479043;28;20070;-75
2023/03/17 00:25:22;;;;;;;20.08;9.45;;;;;;;;;;10484465;28;20404;-75
2023/03/17 00:30:43;;;;;;;29.65;11.27;;;;;;;;;;10454360;28;20035;-75
2023/03/17 00:36:05;;;;;;;22.73;10.07;;;;;;;;;;10481665;28;20039;-75
2023/03/17 00:41:26;;;;;;;27.98;10.60;;;;;;;;;;10435830;28;20419;-75
2023/03/17 00:46:47;;;;;;;21.30;9.85;;;;;;;;;;10476961;28;20036;-75
2023/03/17 00:52:08;;;;;;;28.13;11.07;;;;;;;;;;10450756;28;20051;-75
2023/03/17 00:57:29;;;;;;;26.17;11.23;;;;;;;;;;10466597;28;20386;-73
2023/03/17 01:02:51;;;;;;;11.82;8.05;;;;;;;;;;10449503;28;20032;-74
2023/03/17 01:08:12;;;;;;;25.58;10.90;;;;;;;;;;10461809;28;20070;-75
2023/03/17 01:13:33;;;;;;;31.55;11.63;;;;;;;;;;10447300;28;20043;-76
2023/03/17 01:18:54;;;;;;;23.90;10.30;;;;;;;;;;10469804;28;20067;-74
2023/03/17 01:24:15;;;;;;;31.15;11.10;;;;;;;;;;10468904;28;20392;-75
2023/03/17 01:29:36;;;;;;;26.65;10.98;;;;;;;;;;10462991;28;20501;-74
2023/03/17 01:34:57;;;;;;;24.58;9.52;;;;;;;;;;10498689;28;20032;-74
2023/03/17 01:40:21;;;;;;;16.13;8.45;;;;;;;;;;10480347;28;20028;-74
2023/03/17 01:46:00;;;;;;;11.73;7.82;;;;;;;;;;10508745;28;20047;-75
2023/03/17 01:51:41;;;;;;;13.88;8.13;;;;;;;;;;10510610;28;20039;-75
2023/03/17 01:57:08;;;;;;;13.37;8.57;;;;;;;;;;10500302;28;20135;-75
2023/03/17 02:02:30;;;;;;;18.92;9.20;;;;;;;;;;10505487;28;20040;-75
2023/03/17 02:07:52;;;;;;;13.20;8.30;;;;;;;;;;10506904;28;20024;-75
2023/03/17 02:13:13;;;;;;;15.45;8.80;;;;;;;;;;10503509;28;20046;-74
2023/03/17 02:18:34;;;;;;;21.23;9.43;;;;;;;;;;10480135;28;20044;-75
2023/03/17 02:23:55;;;;;;;12.57;8.23;;;;;;;;;;10465559;28;20060;-75
2023/03/17 02:29:18;;;;;;;16.90;9.15;;;;;;;;;;10472864;28;20021;-74
2023/03/17 02:34:38;;;;;;;17.70;8.88;;;;;;;;;;10466897;28;20472;-75
2023/03/17 02:40:00;;;;;;;24.55;10.10;;;;;;;;;;10505459;27;20040;-74
2023/03/17 02:45:22;;;;;;;29.08;11.13;;;;;;;;;;10509261;27;20040;-73
2023/03/17 02:50:43;;;;;;;19.40;9.23;;;;;;;;;;10468087;28;20028;-73
2023/03/17 02:56:04;;;;;;;12.60;7.65;;;;;;;;;;10492127;28;20436;-73
2023/03/17 03:01:25;;;;;;;23.98;9.98;;;;;;;;;;10476419;28;20041;-73
2023/03/17 03:06:46;;;;;;;21.90;9.90;;;;;;;;;;10487599;28;20066;-74
2023/03/17 03:12:08;;;;;;;18.33;8.57;;;;;;;;;;10481402;28;20039;-74
2023/03/17 03:17:29;;;;;;;24.90;10.45;;;;;;;;;;10483892;28;20037;-74
2023/03/17 03:22:51;;;;;;;7.80;6.57;;;;;;;;;;10504693;27;20027;-74
2023/03/17 03:28:12;;;;;;;14.00;8.25;;;;;;;;;;10493391;28;20047;-74
2023/03/17 03:33:33;;;;;;;13.82;7.63;;;;;;;;;;10503865;28;20086;-74
2023/03/17 03:38:54;;;;;;;16.63;8.23;;;;;;;;;;10488295;28;20032;-74
2023/03/17 03:44:15;;;;;;;26.42;10.57;;;;;;;;;;10478623;28;20025;-74
2023/03/17 03:49:36;;;;;;;22.40;10.18;;;;;;;;;;10484832;28;20043;-74
2023/03/17 03:54:56;;;;;;;19.30;8.73;;;;;;;;;;10512343;27;20051;-74
2023/03/17 04:00:18;;;;;;;24.05;9.82;;;;;;;;;;10482346;28;20043;-74
2023/03/17 04:05:39;;;;;;;15.68;8.95;;;;;;;;;;10495813;28;20547;-78
2023/03/17 04:11:00;;;;;;;12.10;8.25;;;;;;;;;;10484575;28;20041;-78
2023/03/17 04:16:21;;;;;;;14.25;9.05;;;;;;;;;;10496451;28;20043;-78
2023/03/17 04:21:42;;;;;;;15.25;8.45;;;;;;;;;;10508507;28;21230;-77
2023/03/17 04:27:03;;;;;;;12.05;8.05;;;;;;;;;;10505832;28;20515;-78
2023/03/17 04:32:24;;;;;;;18.52;8.50;;;;;;;;;;10506224;28;20037;-78
2023/03/17 04:37:45;;;;;;;15.02;9.02;;;;;;;;;;10513533;28;20032;-78
2023/03/17 04:43:06;;;;;;;22.65;9.80;;;;;;;;;;10483694;28;20028;-77
2023/03/17 04:48:27;;;;;;;14.70;8.30;;;;;;;;;;10498713;28;20043;-77
2023/03/17 04:53:48;;;;;;;12.82;8.05;;;;;;;;;;10488115;28;20044;-77
2023/03/17 04:59:09;;;;;;;20.67;9.27;;;;;;;;;;10473312;28;20047;-77
2023/03/17 05:04:30;;;;;;;18.80;8.65;;;;;;;;;;10499330;28;20024;-77
2023/03/17 05:09:51;;;;;;;15.82;7.88;;;;;;;;;;10496860;28;20067;-78
2023/03/17 05:15:12;;;;;;;19.10;8.98;;;;;;;;;;10480679;28;20032;-76
2023/03/17 05:20:33;;;;;;;19.90;8.48;;;;;;;;;;10460532;28;20039;-77
2023/03/17 05:25:54;;;;;;;14.13;8.10;;;;;;;;;;10502759;28;20040;-78
2023/03/17 05:31:15;;;;;;;14.25;8.43;;;;;;;;;;10479867;28;20384;-78
2023/03/17 05:36:36;;;;;;;16.65;8.75;;;;;;;;;;10460964;28;20052;-77
2023/03/17 05:41:57;;;;;;;18.45;8.98;;;;;;;;;;10471844;28;20039;-77
2023/03/17 05:47:18;;;;;;;23.48;9.80;;;;;;;;;;10477936;28;20073;-77
2023/03/17 05:52:39;;;;;;;25.73;10.30;;;;;;;;;;10482535;28;20051;-77
2023/03/17 05:58:00;;;;;;;17.65;9.02;;;;;;;;;;10489465;28;20028;-77
2023/03/17 06:03:21;;;;;;;24.05;9.52;;;;;;;;;;10493596;28;20032;-77
2023/03/17 06:08:42;;;;;;;23.60;9.73;;;;;;;;;;10490169;28;20389;-78
2023/03/17 06:14:03;;;;;;;13.45;8.80;;;;;;;;;;10475183;28;20761;-78
2023/03/17 06:19:24;;;;;;;18.40;9.27;;;;;;;;;;10484567;28;20032;-77
2023/03/17 06:24:45;;;;;;;19.17;9.20;;;;;;;;;;10506184;28;20919;-77
2023/03/17 06:30:07;;;;;;;16.08;8.82;;;;;;;;;;10508598;27;20039;-78
2023/03/17 06:35:28;;;;;;;9.93;7.80;;;;;;;;;;10471566;28;20054;-78
2023/03/17 06:40:49;;;;;;;11.23;8.05;;;;;;;;;;10493864;28;20032;-78
2023/03/17 06:46:10;;;;;;;17.25;9.32;;;;;;;;;;10489230;28;20066;-76
2023/03/17 06:51:31;;;;;;;11.40;7.75;;;;;;;;;;10523565;28;20408;-76
2023/03/17 06:56:52;;;;;;;10.38;7.70;;;;;;;;;;10487060;28;20504;-76
2023/03/17 07:02:14;;;;;;;16.45;9.25;;;;;;;;;;10500565;28;20051;-76
2023/03/17 07:07:35;;;;;;;21.25;9.18;;;;;;;;;;10500952;28;20055;-76
2023/03/17 07:12:56;;;;;;;11.18;7.40;;;;;;;;;;10504810;28;20043;-76
2023/03/17 07:18:18;;;;;;;16.23;8.13;;;;;;;;;;10467818;28;20036;-76
2023/03/17 07:23:38;;;;;;;12.88;8.13;;;;;;;;;;10525286;28;20040;-76
2023/03/17 07:29:00;;;;;;;12.48;7.68;;;;;;;;;;10489975;28;20481;-77
2023/03/17 07:34:21;;;;;;;17.80;8.30;;;;;;;;;;10529514;27;20031;-74
2023/03/17 07:39:43;;;;;;;16.70;8.65;;;;;;;;;;10496696;28;20400;-74
2023/03/17 07:45:04;;;;;;;15.07;8.77;;;;;;;;;;10487324;28;20029;-74
2023/03/17 07:50:25;;;;;;;21.67;10.20;;;;;;;;;;10477627;28;21152;-74
2023/03/17 07:55:46;;;;;;;17.33;8.98;;;;;;;;;;10480832;28;20910;-73
2023/03/17 08:01:08;;;;;;;19.02;8.85;;;;;;;;;;10494622;28;20041;-74
2023/03/17 08:06:30;;;;;;;15.73;8.55;;;;;;;;;;10514207;28;20515;-73
2023/03/17 08:11:50;;;;;;;16.00;8.43;;;;;;;;;;10505861;28;20051;-74
2023/03/17 08:17:12;;;;;;;9.93;7.25;;;;;;;;;;10532783;28;20405;-73
2023/03/17 08:22:33;;;;;;;12.98;8.00;;;;;;;;;;10484022;28;20347;-72
2023/03/17 08:27:54;;;;;;;25.27;10.85;;;;;;;;;;10492916;28;20043;-72
2023/03/17 08:33:15;;;;;;;23.33;9.80;;;;;;;;;;10494429;27;20033;-74
2023/03/17 08:38:37;;;;;;;15.85;8.55;;;;;;;;;;10486065;28;20025;-72
2023/03/17 08:43:58;;;;;;;18.52;8.93;;;;;;;;;;10489394;28;20754;-73
2023/03/17 08:49:20;;;;;;;15.02;7.88;;;;;;;;;;10496725;28;20037;-73
2023/03/17 08:54:42;;;;;;;11.35;7.35;;;;;;;;;;10485333;28;20044;-73
2023/03/17 09:00:09;;;;;;;19.08;7.75;;;;;;;;;;10486414;28;20039;-75
2023/03/17 09:05:31;;;;;;;14.40;6.85;;;;;;;;;;10489896;28;20379;-74
2023/03/17 09:10:53;;;;;;;14.68;6.65;;;;;;;;;;10491335;28;20044;-73
2023/03/17 09:16:16;;;;;;;11.93;7.18;;;;;;;;;;10501632;28;20043;-73
2023/03/17 09:21:37;;;;;;;11.43;6.53;;;;;;;;;;10501283;28;20047;-73
2023/03/17 09:27:00;;;;;;;20.27;9.88;;;;;;;;;;10486849;28;20036;-75
2023/03/17 09:32:21;;;;;;;10.07;6.57;;;;;;;;;;10491806;28;20528;-74
2023/03/17 09:37:42;;;;;;;20.13;9.32;;;;;;;;;;10496508;28;20395;-73
2023/03/17 09:43:08;;;;;;;14.60;7.70;;;;;;;;;;10515196;28;20031;-74
2023/03/17 09:48:47;;;;;;;14.02;7.78;;;;;;;;;;10487055;28;20043;-74
2023/03/17 09:54:24;;;;;;;11.95;7.45;;;;;;;;;;10489559;28;20058;-74
2023/03/17 09:59:57;;;;;;;15.77;8.10;;;;;;;;;;10510819;28;20079;-73
2023/03/17 10:05:20;;;;;;;15.90;7.75;;;;;;;;;;10509315;28;20024;-73
2023/03/17 10:10:41;;;;;;;16.27;9.18;;;;;;;;;;10523222;28;20054;-73
2023/03/17 10:16:05;;;;;;;13.27;7.55;;;;;;;;;;10495317;28;20083;-76
2023/03/17 10:21:34;;;;;;;17.60;8.93;;;;;;;;;;10514333;28;20056;-76
2023/03/17 10:26:56;;;;;;;12.73;7.28;;;;;;;;;;10514290;28;20060;-75
2023/03/17 10:32:17;;;;;;;10.32;7.78;;;;;;;;;;10529230;28;20040;-76
2023/03/17 10:37:39;;;;;;;12.55;8.05;;;;;;;;;;10496057;28;20036;-74
2023/03/17 10:43:02;;;;;;;18.85;7.78;;;;;;;;;;10502517;28;20024;-77
2023/03/17 10:48:23;;;;;;;11.50;6.57;;;;;;;;;;10523699;28;20039;-75
2023/03/17 10:53:44;;;;;;;11.30;7.25;;;;;;;;;;10511481;28;20055;-73
2023/03/17 10:59:07;;;;;;;20.23;8.63;;;;;;;;;;10526645;28;20428;-76
2023/03/17 11:04:29;;;;;;;22.05;8.45;;;;;;;;;;10530629;28;20031;-82
2023/03/17 11:09:51;;;;;;;17.42;7.15;;;;;;;;;;10507196;28;20032;-81
2023/03/17 11:15:16;;;;;;;14.25;6.47;;;;;;;;;;10497832;28;20043;-81
2023/03/17 11:20:41;;;;;;;14.57;6.65;;;;;;;;;;10505560;28;20032;-80
2023/03/17 11:26:13;;;;;;;14.57;8.05;;;;;;;;;;10521131;28;20067;-80
2023/03/17 11:31:42;;;;;;;20.67;8.95;;;;;;;;;;10501918;28;20036;-80
2023/03/17 11:37:12;;;;;;;20.67;8.68;;;;;;;;;;10479984;28;20079;-79
2023/03/17 11:42:41;;;;;;;22.40;8.40;;;;;;;;;;10467312;28;20063;-80
2023/03/17 11:48:08;;;;;;;16.48;7.82;;;;;;;;;;10487571;28;20036;-79
2023/03/17 11:53:59;;;;;;;23.27;8.90;;;;;;;;;;10477458;28;20048;-80
2023/03/17 11:59:24;;;;;;;19.47;7.40;;;;;;;;;;10478482;28;20032;-78
2023/03/17 12:04:52;;;;;;;15.40;6.47;;;;;;;;;;10469757;28;20452;-78
2023/03/17 12:10:17;;;;;;;23.75;9.50;;;;;;;;;;10472354;28;20409;-76
2023/03/17 12:15:49;;;;;;;14.15;6.57;;;;;;;;;;10512917;28;20377;-78
2023/03/17 12:21:25;;;;;;;15.55;7.78;;;;;;;;;;10507470;28;20032;-77
2023/03/17 12:26:53;;;;;;;22.92;8.55;;;;;;;;;;10511088;28;20039;-78
2023/03/17 12:32:20;;;;;;;15.35;6.80;;;;;;;;;;10497224;28;20501;-77
2023/03/17 12:37:41;;;;;;;19.90;8.52;;;;;;;;;;10463707;28;21298;-77
2023/03/17 12:43:08;;;;;;;12.77;7.05;;;;;;;;;;10486269;28;20028;-77
2023/03/17 12:48:41;;;;;;;14.10;6.50;;;;;;;;;;10508612;28;20047;-78
2023/03/17 12:54:02;;;;;;;13.25;6.47;;;;;;;;;;10505965;28;20059;-77
2023/03/17 12:59:24;;;;;;;15.25;7.15;;;;;;;;;;10507078;28;20036;-77
2023/03/17 13:04:52;;;;;;;13.57;7.00;;;;;;;;;;10486445;28;20039;-76
2023/03/17 13:10:18;;;;;;;16.23;7.38;;;;;;;;;;10489835;28;20040;-77
2023/03/17 13:15:39;;;;;;;23.80;9.05;;;;;;;;;;10496012;28;20039;-76
2023/03/17 13:21:00;;;;;;;19.10;7.57;;;;;;;;;;10495568;28;20040;-77
2023/03/17 13:26:40;;;;;;;14.40;6.85;;;;;;;;;;10518593;28;20033;-77
2023/03/17 13:32:01;;;;;;;;;;;;;;;;;;10499433;28;20032;-77
2023/03/17 13:37:27;;;;;;;19.23;6.85;;;;;;;;;;10490614;28;19916;-77
2023/03/17 13:43:08;;;;;;;15.50;6.38;;;;;;;;;;10513257;28;20036;-77
2023/03/17 13:48:29;;;;;;;13.18;5.85;;;;;;;;;;10518195;28;20032;-76
2023/03/17 13:54:16;;;;;;;14.30;6.60;;;;;;;;;;10545564;27;20040;-77
2023/03/17 13:59:49;;;;;;;12.40;6.22;;;;;;;;;;10506255;28;20492;-77
2023/03/17 14:05:19;;;;;;;11.90;6.68;;;;;;;;;;10531320;28;20036;-77
2023/03/17 14:10:40;;;;;;;18.13;7.00;;;;;;;;;;10529357;28;20035;-77
2023/03/17 14:16:08;;;;;;;13.80;7.35;;;;;;;;;;10536153;28;20370;-77
2023/03/17 14:21:30;;;;;;;13.30;6.40;;;;;;;;;;10543426;28;20035;-77
2023/03/17 14:26:51;;;;;;;13.70;6.78;;;;;;;;;;10508236;28;20048;-77
2023/03/17 14:32:13;;;;;;;10.90;7.00;;;;;;;;;;10500044;28;20090;-76
2023/03/17 14:37:36;;;;;;;13.00;6.45;;;;;;;;;;10513412;28;20512;-77
2023/03/17 14:42:57;;;;;;;15.02;7.30;;;;;;;;;;10528082;28;20035;-77
2023/03/17 14:48:22;;;;;;;13.98;7.45;;;;;;;;;;10497852;28;20031;-76
2023/03/17 14:53:45;;;;;;;9.82;6.30;;;;;;;;;;10507323;28;20521;-77
2023/03/17 14:59:07;;;;;;;13.48;7.82;;;;;;;;;;10514952;28;20040;-77
2023/03/17 15:04:29;;;;;;;13.65;6.68;;;;;;;;;;10500435;28;20036;-78
2023/03/17 15:09:57;;;;;;;13.55;6.43;;;;;;;;;;10497778;28;20041;-79
2023/03/17 15:15:25;;;;;;;17.13;7.25;;;;;;;;;;10505419;28;20036;-79
2023/03/17 15:20:46;;;;;;;10.07;5.75;;;;;;;;;;10520269;28;20036;-78
2023/03/17 15:26:20;;;;;;;11.93;6.05;;;;;;;;;;10526792;28;20043;-78
2023/03/17 15:31:41;;;;;;;12.48;5.97;;;;;;;;;;10527987;28;20036;-78
2023/03/17 15:37:01;;;;;;;18.80;6.95;;;;;;;;;;10498540;28;21785;-78
2023/03/17 15:42:24;;;;;;;13.13;6.65;;;;;;;;;;10483083;28;20072;-78
2023/03/17 15:47:46;;;;;;;12.95;5.60;;;;;;;;;;10512323;28;20036;-78
2023/03/17 15:53:08;;;;;;;11.88;6.07;;;;;;;;;;10509243;28;20380;-78
2023/03/17 15:58:29;;;;;;;11.93;6.28;;;;;;;;;;10497418;28;20024;-78
2023/03/17 16:03:50;;;;;;;17.88;6.57;;;;;;;;;;10510315;28;20477;-78
2023/03/17 16:09:15;;;;;;;22.08;8.52;;;;;;;;;;10514216;28;20031;-78
2023/03/17 16:14:35;;;;;;;13.73;6.53;;;;;;;;;;10499006;28;20039;-78
2023/03/17 16:19:57;;;;;;;16.30;6.82;;;;;;;;;;10498457;28;20405;-79
2023/03/17 16:25:18;;;;;;;23.13;7.50;;;;;;;;;;10495734;28;20024;-78
2023/03/17 16:30:39;;;;;;;12.95;6.03;;;;;;;;;;10500480;28;20397;-79
2023/03/17 16:36:00;;;;;;;13.45;6.25;;;;;;;;;;10483037;28;20524;-78
2023/03/17 16:41:22;;;;;;;11.18;6.40;;;;;;;;;;10507213;28;20040;-78
2023/03/17 16:46:44;;;;;;;16.73;6.72;;;;;;;;;;10498882;28;20043;-78
2023/03/17 16:52:04;;;;;;;9.15;5.97;;;;;;;;;;10513323;28;20028;-78
2023/03/17 16:57:25;;;;;;;13.63;6.78;;;;;;;;;;10519943;28;20094;-78
2023/03/17 17:02:46;;;;;;;16.38;6.88;;;;;;;;;;10514267;28;20028;-78
2023/03/17 17:08:07;;;;;;;12.10;6.00;;;;;;;;;;10492606;28;20048;-78
2023/03/17 17:13:28;;;;;;;13.40;6.65;;;;;;;;;;10508925;28;20036;-78
2023/03/17 17:18:49;;;;;;;11.75;5.43;;;;;;;;;;10516975;28;20040;-77
2023/03/17 17:24:11;;;;;;;10.68;4.70;;;;;;;;;;10512428;28;20036;-78
2023/03/17 17:29:32;;;;;;;7.97;4.05;;;;;;;;;;10494775;28;20381;-78
2023/03/17 17:34:54;;;;;;;11.57;5.25;;;;;;;;;;10510068;28;20447;-78
2023/03/17 17:40:17;;;;;;;15.40;6.05;;;;;;;;;;10492989;28;20078;-78
2023/03/17 17:45:38;;;;;;;14.70;5.90;;;;;;;;;;10492599;28;20078;-78
2023/03/17 17:50:59;;;;;;;17.23;5.78;;;;;;;;;;10496596;28;20039;-78
2023/03/17 17:56:20;;;;;;;21.42;7.45;;;;;;;;;;10506402;28;20508;-78
2023/03/17 18:01:41;;;;;;;14.02;5.82;;;;;;;;;;10501438;28;20044;-76
2023/03/17 18:07:02;;;;;;;19.70;7.00;;;;;;;;;;10512972;28;20024;-76
2023/03/17 18:12:23;;;;;;;11.85;5.90;;;;;;;;;;10512875;28;20029;-76
2023/03/17 18:17:44;;;;;;;20.00;6.90;;;;;;;;;;10476957;28;20483;-75
2023/03/17 18:23:05;;;;;;;12.63;5.43;;;;;;;;;;10479335;28;20784;-75
2023/03/17 18:28:26;;;;;;;13.88;5.97;;;;;;;;;;10481236;28;20409;-75
2023/03/17 18:33:48;;;;;;;24.52;8.05;;;;;;;;;;10473503;28;20044;-75
2023/03/17 18:39:09;;;;;;;18.75;6.53;;;;;;;;;;10497668;28;20032;-74
2023/03/17 18:44:30;;;;;;;17.60;6.97;;;;;;;;;;10492844;28;20040;-75
2023/03/17 18:49:51;;;;;;;8.95;4.80;;;;;;;;;;10505846;28;20039;-75
2023/03/17 18:55:13;;;;;;;11.65;5.57;;;;;;;;;;10518242;28;20048;-75
2023/03/17 19:00:34;;;;;;;11.00;5.30;;;;;;;;;;10521001;28;20035;-75
2023/03/17 19:05:55;;;;;;;9.18;5.03;;;;;;;;;;10519065;28;20036;-76
2023/03/17 19:11:17;;;;;;;9.63;4.78;;;;;;;;;;10508235;28;20414;-75
2023/03/17 19:16:38;;;;;;;8.77;5.00;;;;;;;;;;10516115;28;20067;-75
2023/03/17 19:21:59;;;;;;;11.15;5.57;;;;;;;;;;10530512;28;20088;-76
2023/03/17 19:27:20;;;;;;;14.45;5.65;;;;;;;;;;10507431;28;20028;-75
2023/03/17 19:32:41;;;;;;;11.38;5.20;;;;;;;;;;10503928;28;20036;-76
2023/03/17 19:38:02;;;;;;;17.38;6.65;;;;;;;;;;10502855;28;20197;-74
2023/03/17 19:43:23;;;;;;;10.98;5.47;;;;;;;;;;10503114;28;20341;-73
2023/03/17 19:48:45;;;;;;;17.40;7.60;;;;;;;;;;10500056;28;20043;-73
2023/03/17 19:54:06;;;;;;;14.93;6.53;;;;;;;;;;10487615;28;20052;-75
2023/03/17 19:59:27;;;;;;;21.20;7.05;;;;;;;;;;10503990;28;20051;-78
2023/03/17 20:04:48;;;;;;;8.73;4.85;;;;;;;;;;10522437;28;20039;-82
2023/03/17 20:10:10;;;;;;;12.88;5.93;;;;;;;;;;10511905;28;20040;-80
2023/03/17 20:15:31;;;;;;;11.38;5.65;;;;;;;;;;10514439;28;20039;-79
2023/03/17 20:20:53;;;;;;;9.30;5.88;;;;;;;;;;10511041;28;20036;-79
2023/03/17 20:26:13;;;;;;;12.20;6.20;;;;;;;;;;10500390;28;20035;-79
2023/03/17 20:31:35;;;;;;;10.63;5.40;;;;;;;;;;10518128;28;20039;-78
2023/03/17 20:36:56;;;;;;;10.98;5.65;;;;;;;;;;10520172;28;20055;-79
2023/03/17 20:42:17;;;;;;;13.88;6.03;;;;;;;;;;10502525;28;20441;-79
2023/03/17 20:47:38;;;;;;;14.90;6.93;;;;;;;;;;10501052;28;20028;-79
2023/03/17 20:53:00;;;;;;;16.95;7.53;;;;;;;;;;10490221;28;20051;-79
2023/03/17 20:58:21;;;;;;;10.52;6.00;;;;;;;;;;10498992;28;20027;-79
2023/03/17 21:03:43;;;;;;;12.20;6.15;;;;;;;;;;10505381;28;20431;-79
2023/03/17 21:09:04;;;;;;;9.63;5.80;;;;;;;;;;10502262;28;20368;-78
2023/03/17 21:14:26;;;;;;;14.63;6.80;;;;;;;;;;10499587;28;20614;-80
2023/03/17 21:19:47;;;;;;;18.55;7.60;;;;;;;;;;10516053;28;20518;-79
2023/03/17 21:25:09;;;;;;;17.17;7.57;;;;;;;;;;10516979;28;20032;-80
2023/03/17 21:30:30;;;;;;;23.65;7.25;;;;;;;;;;10530467;28;20044;-79
2023/03/17 21:35:51;;;;;;;12.95;6.32;;;;;;;;;;10505728;28;20032;-80
2023/03/17 21:41:20;;;;;;;16.70;8.00;;;;;;;;;;10507569;28;20103;-79
2023/03/17 21:46:41;;;;;;;20.80;8.82;;;;;;;;;;10487731;28;20048;-78
2023/03/17 21:52:02;;;;;;;10.13;6.82;;;;;;;;;;10505385;28;20032;-78
2023/03/17 21:57:24;;;;;;;19.00;8.30;;;;;;;;;;10525367;28;20063;-78
2023/03/17 22:02:45;;;;;;;15.35;7.63;;;;;;;;;;10490508;28;20040;-78
2023/03/17 22:08:06;;;;;;;21.02;9.18;;;;;;;;;;10491256;28;20039;-78
2023/03/17 22:13:27;;;;;;;18.45;8.80;;;;;;;;;;10507889;28;20036;-78
2023/03/17 22:18:48;;;;;;;20.33;9.23;;;;;;;;;;10513044;28;20036;-78
2023/03/17 22:24:09;;;;;;;19.75;8.90;;;;;;;;;;10493902;28;20036;-75
2023/03/17 22:29:31;;;;;;;19.38;9.30;;;;;;;;;;10503544;27;20035;-75
2023/03/17 22:34:52;;;;;;;26.65;11.88;;;;;;;;;;10489367;28;20034;-75
2023/03/17 22:40:13;;;;;;;16.30;9.57;;;;;;;;;;10519637;28;20038;-75
2023/03/17 22:45:34;;;;;;;25.77;9.93;;;;;;;;;;10510375;28;20036;-75
2023/03/17 22:50:59;;;;;;;15.50;9.75;;;;;;;;;;10507384;28;20516;-75
2023/03/17 22:56:20;;;;;;;19.55;9.20;;;;;;;;;;10524930;28;20125;-75
2023/03/17 23:01:40;;;;;;;23.77;10.95;;;;;;;;;;10518021;28;20039;-75
2023/03/17 23:07:02;;;;;;;19.67;8.45;;;;;;;;;;10502471;28;20039;-75
2023/03/17 23:12:23;;;;;;;14.85;8.73;;;;;;;;;;10524437;28;20036;-75
2023/03/17 23:17:45;;;;;;;19.73;10.18;;;;;;;;;;10496385;28;20040;-75
2023/03/17 23:23:06;;;;;;;23.25;11.32;;;;;;;;;;10512069;28;20028;-75
2023/03/17 23:28:27;;;;;;;18.27;8.68;;;;;;;;;;10513564;28;20481;-75
2023/03/17 23:33:48;;;;;;;25.30;11.25;;;;;;;;;;10502929;28;20032;-75
2023/03/17 23:39:09;;;;;;;17.00;8.98;;;;;;;;;;10498025;28;20040;-75
2023/03/17 23:44:30;;;;;;;22.83;11.20;;;;;;;;;;10514051;28;20369;-75
2023/03/17 23:49:52;;;;;;;19.70;10.25;;;;;;;;;;10504514;28;20032;-75
2023/03/17 23:55:13;;;;;;;28.90;13.05;;;;;;;;;;10497607;28;20044;-75
